Muncie, IN

11:58 AM EDT on May 25, 2017 (GMT -0400)
Sunset Knoll | | Change Station
Active Advisory: Flood Warning

Elev 913 ft 40.21 °N, 85.42 °W | Updated 16 seconds ago

Light Rain
Light Rain
60.3 °F
Feels Like 60.3 °F
N
3.0
Wind Variable Wind from East

Today
High -- | Low -- °F
--% Chance of Precip.
Yesterday
High -- | Low -- °F
Precip. -- in
Pressure 29.47 in
Visibility 10.0 miles
Clouds Overcast 900 ft
Dew Point 59 °F
Humidity 98%
Rainfall 1.11 in
Snow Depth Not available.
6:17 AM 8:59 PM
Waning Crescent, 0% visible
METAR KMIE 251553Z 33016G20KT 10SM -RA OVC009 17/15 A2949 RMK AO2 RAE21B52 CIG 006V012 SLP978 T01720150 PNO $
Pressure 29.47 in
Visibility 10.0 miles
Clouds Overcast 900 ft
Dew Point 59 °F
Humidity 98%
Rainfall 1.11 in
Snow Depth Not available.
6:17 AM 8:59 PM
Waning Crescent, 0% visible
METAR KMIE 251553Z 33016G20KT 10SM -RA OVC009 17/15 A2949 RMK AO2 RAE21B52 CIG 006V012 SLP978 T01720150 PNO $

Get Your Daily Forecast Email!

Thanks for signing up!

Be on the lookout for a verification email in your inbox.

You'll start receiving severe weather alerts in your inbox..

×

10-Day Weather Forecast

Almanac

Astronomy

May. 25, 2017 Rise Set
Actual Time
Civil Twilight
Nautical Twilight
Astronomical Twilight
Moon
Length of Visible Light
Length of Day
Tomorrow will be .
, % of the Moon is Illuminated

Today's Extremes

State Highs State Lows

Community

WunderPhotos

Category 6

Welcome to Category 6. This is the collective home for Weather Underground's featured writeups by Dr. Jeff Masters (right), Bob Henson (left), Chris Burt, and other regular contributors.

Nearby

Air Quality

  Air Quality AQ Index Pollutant
Not available.

Snow Depth

Station Depth Elevation

Earthquake Activity

City Distance Mag. Time & Date
Minimum magnitude displayed is 2.5.

Coastal Water Temperatures

Place Temperature

Stations

Nearby Weather Stations

Station Location Temp. Windchill Dew Point Humidity Wind Precip. Elev Updated Type
                   

Watches & Warnings

Flood Warning
Issued: 8:09 AM EDT May. 25, 2017 – National Weather Service

The National Weather Service in Indianapolis has issued a

* Flood Warning for
the mississinewa river near Ridgeville.
* Until further notice.
* At 7:30 am Thursday the stage was 12.0 feet.
* Flood stage is 11.0 feet.
* The river was at crest and will begin to fall later today.
* At 11.5 feet... water on The Shoulder and edge of sr 1 south of the
Junction with sr 28 in western Randolph County.


Lat... Lon 4026 8496 4024 8528 4038 8551 4041 8543
      4030 8527 4029 8495